createdAt,value
2018-05-13T08:59:42.901Z,59.19
2018-05-13T09:00:42.705Z,59.00
2018-05-13T09:02:46.589Z,59.19
2018-05-13T09:03:46.461Z,59.00
2018-05-13T09:05:50.351Z,58.22
2018-05-13T09:06:50.210Z,59.38
2018-05-13T09:08:54.047Z,59.58
2018-05-13T09:09:53.970Z,59.60
2018-05-13T09:10:53.900Z,60.47
2018-05-13T09:11:53.826Z,60.28
2018-05-13T09:12:53.758Z,60.28
2018-05-13T09:13:53.692Z,60.28
2018-05-13T09:14:53.614Z,60.28
2018-05-13T09:15:53.588Z,59.99
2018-05-13T09:16:53.469Z,58.93
2018-05-13T09:17:53.409Z,58.93
2018-05-13T09:18:53.327Z,58.83
2018-05-13T09:19:53.257Z,58.73
2018-05-13T09:20:53.219Z,58.73
2018-05-13T09:21:53.123Z,59.12
2018-05-13T09:22:53.044Z,58.93
2018-05-13T09:23:52.971Z,59.02
2018-05-13T09:24:52.904Z,57.57
2018-05-13T09:25:52.836Z,58.57
2018-05-13T09:26:52.759Z,58.64
2018-05-13T09:27:52.692Z,58.18
2018-05-13T09:28:52.635Z,58.86
2018-05-13T09:29:52.549Z,58.09
2018-05-13T09:30:52.477Z,56.99
2018-05-13T09:31:52.411Z,57.21
2018-05-13T09:32:52.339Z,57.79
2018-05-13T09:33:52.268Z,56.63
2018-05-13T09:34:52.195Z,56.05
2018-05-13T09:35:52.138Z,56.54
2018-05-13T09:36:52.060Z,56.15
2018-05-13T09:37:51.988Z,56.15
2018-05-13T09:38:51.926Z,56.35
2018-05-13T09:39:51.847Z,56.35
2018-05-13T09:40:51.776Z,55.57
2018-05-13T09:41:51.707Z,56.05
2018-05-13T09:42:51.634Z,56.63
2018-05-13T09:43:51.566Z,55.47
2018-05-13T09:44:51.495Z,55.47
2018-05-13T09:45:51.459Z,57.15
2018-05-13T09:46:51.361Z,56.37
2018-05-13T09:47:51.286Z,56.37
2018-05-13T09:48:51.219Z,56.47
2018-05-13T09:49:51.161Z,56.95
2018-05-13T09:50:51.079Z,55.21
2018-05-13T09:51:51.011Z,55.21
2018-05-13T09:52:50.936Z,55.02
2018-05-13T09:53:50.867Z,55.51
2018-05-13T09:54:50.804Z,56.28
2018-05-13T09:55:50.728Z,55.02
2018-05-13T09:56:50.661Z,55.51
2018-05-13T09:57:50.604Z,55.11
2018-05-13T09:58:50.517Z,55.24
2018-05-13T09:59:50.449Z,55.82
2018-05-13T10:00:50.392Z,54.27
2018-05-13T10:01:50.309Z,54.75
2018-05-13T10:02:50.238Z,54.57
2018-05-13T10:03:50.185Z,55.53
2018-05-13T10:04:50.099Z,54.66
2018-05-13T10:05:50.033Z,54.47
2018-05-13T10:06:49.959Z,54.17
2018-05-13T10:07:49.891Z,54.57
2018-05-13T10:08:49.819Z,53.59
2018-05-13T10:09:49.752Z,54.08
2018-05-13T10:10:49.681Z,54.37
2018-05-13T10:11:49.612Z,54.57
2018-05-13T10:12:49.541Z,54.57
2018-05-13T10:13:49.496Z,54.57
2018-05-13T10:14:49.406Z,54.98
2018-05-13T10:15:49.337Z,54.88
2018-05-13T10:16:49.263Z,53.63
2018-05-13T10:17:49.195Z,51.88
2018-05-13T10:18:49.127Z,52.95
2018-05-13T10:19:49.055Z,53.91
2018-05-13T10:20:48.986Z,52.97
2018-05-13T10:21:48.917Z,52.68
2018-05-13T10:22:48.846Z,52.68
2018-05-13T10:23:48.778Z,53.17
2018-05-13T10:24:48.711Z,52.58
2018-05-13T10:25:48.662Z,51.32
2018-05-13T10:26:48.570Z,50.65
2018-05-13T10:27:48.502Z,51.23
2018-05-13T10:28:48.432Z,51.62
2018-05-13T10:29:48.393Z,52.00
2018-05-13T10:30:48.425Z,52.29
2018-05-13T10:31:48.227Z,51.54
2018-05-13T10:32:48.157Z,52.12
2018-05-13T10:33:48.088Z,52.32
2018-05-13T10:34:48.017Z,51.35
2018-05-13T10:35:47.948Z,51.45
2018-05-13T10:36:47.879Z,51.16
2018-05-13T10:37:47.810Z,50.12
2018-05-13T10:38:47.741Z,50.48
2018-05-13T10:39:47.673Z,50.70
2018-05-13T10:40:47.604Z,50.70
2018-05-13T10:41:47.535Z,50.41
2018-05-13T10:42:47.469Z,50.50
2018-05-13T10:43:47.398Z,50.31
2018-05-13T10:44:47.330Z,49.54
2018-05-13T10:45:47.261Z,50.21
2018-05-13T10:46:47.194Z,51.28
2018-05-13T10:47:47.128Z,50.50
2018-05-13T10:48:47.054Z,50.50
2018-05-13T10:49:46.989Z,48.66
2018-05-13T10:50:46.929Z,49.54
2018-05-13T10:51:46.849Z,49.44
2018-05-13T10:52:46.783Z,48.47
2018-05-13T10:53:46.714Z,49.34
2018-05-13T10:54:46.651Z,47.40
2018-05-13T10:55:46.575Z,46.92
2018-05-13T10:56:46.512Z,46.92
2018-05-13T10:57:46.464Z,47.02
2018-05-13T10:58:46.370Z,47.91
2018-05-13T10:59:46.302Z,47.42
2018-05-13T11:00:46.243Z,49.07
2018-05-13T11:01:46.167Z,47.62
2018-05-13T11:02:46.099Z,48.39
2018-05-13T11:03:46.029Z,49.00
2018-05-13T11:04:46.069Z,48.13
2018-05-13T11:05:45.896Z,47.74
2018-05-13T11:06:45.842Z,47.45
2018-05-13T11:07:45.759Z,47.45
2018-05-13T11:08:45.689Z,48.13
2018-05-13T11:09:45.621Z,48.90
2018-05-13T11:10:45.550Z,48.13
2018-05-13T11:11:45.483Z,47.64
2018-05-13T11:12:45.416Z,47.66
2018-05-13T11:13:45.348Z,47.66
2018-05-13T11:14:45.281Z,48.35
2018-05-13T11:15:45.217Z,46.89
2018-05-13T11:16:45.146Z,45.82
2018-05-13T11:17:45.081Z,45.62
2018-05-13T11:18:45.008Z,45.82
2018-05-13T11:19:44.945Z,45.82
2018-05-13T11:20:44.898Z,46.98
2018-05-13T11:21:44.804Z,47.49
2018-05-13T11:22:44.737Z,46.81
2018-05-13T11:23:44.690Z,45.45
2018-05-13T11:24:44.602Z,46.14
2018-05-13T11:25:44.536Z,46.52
2018-05-13T11:26:44.486Z,46.52
2018-05-13T11:27:44.401Z,46.62
2018-05-13T11:28:44.333Z,46.72
2018-05-13T11:29:44.279Z,46.25
2018-05-13T11:30:44.201Z,46.15
2018-05-13T11:31:44.131Z,44.99
2018-05-13T11:32:44.063Z,44.89
2018-05-13T11:33:44.083Z,45.09
2018-05-13T11:34:43.925Z,45.28
2018-05-13T11:35:43.862Z,45.18
2018-05-13T11:36:43.795Z,44.99
2018-05-13T11:37:43.727Z,43.63
2018-05-13T11:38:43.655Z,44.99
2018-05-13T11:39:43.592Z,43.54
2018-05-13T11:40:43.521Z,42.46
2018-05-13T11:41:43.458Z,43.92
2018-05-13T11:42:43.387Z,43.07
2018-05-13T11:43:43.321Z,43.07
2018-05-13T11:44:43.251Z,43.46
2018-05-13T11:45:43.187Z,43.16
2018-05-13T11:46:43.164Z,41.61
2018-05-13T11:47:43.051Z,42.68
2018-05-13T11:48:42.987Z,42.68
2018-05-13T11:49:42.921Z,43.75
2018-05-13T11:50:42.853Z,43.36
2018-05-13T11:51:42.811Z,44.72
2018-05-13T11:52:42.717Z,45.14
2018-05-13T11:53:43.644Z,44.06
2018-05-13T11:54:42.584Z,44.84
2018-05-13T11:55:42.517Z,44.65
2018-05-13T11:56:42.456Z,43.58
2018-05-13T11:57:42.382Z,43.29
2018-05-13T11:58:42.352Z,43.09
2018-05-13T11:59:42.254Z,43.11
2018-05-13T12:00:42.183Z,43.60
2018-05-13T12:01:42.117Z,42.33
2018-05-13T12:02:42.049Z,43.11
2018-05-13T12:03:41.983Z,42.91
2018-05-13T12:04:41.915Z,42.14
2018-05-13T12:05:41.851Z,43.13
2018-05-13T12:06:41.784Z,41.77
2018-05-13T12:07:41.715Z,41.86
2018-05-13T12:08:41.651Z,41.77
2018-05-13T12:09:41.587Z,40.80
2018-05-13T12:10:41.517Z,42.25
2018-05-13T12:11:41.450Z,41.86
2018-05-13T12:12:41.390Z,40.70
2018-05-13T12:13:41.331Z,40.11
2018-05-13T12:14:41.253Z,40.60
2018-05-13T12:15:41.185Z,41.48
2018-05-13T12:16:41.186Z,40.80
2018-05-13T12:17:41.053Z,40.41
2018-05-13T12:18:40.984Z,40.19
2018-05-13T12:19:40.917Z,40.09
2018-05-13T12:20:40.853Z,40.97
2018-05-13T12:21:40.787Z,41.85
2018-05-13T12:22:40.745Z,40.58
2018-05-13T12:23:40.653Z,39.70
2018-05-13T12:24:40.587Z,39.90
2018-05-13T12:25:40.521Z,40.88
2018-05-13T12:26:40.455Z,41.14
2018-05-13T12:27:40.393Z,40.75
2018-05-13T12:28:40.322Z,40.08
2018-05-13T12:29:40.259Z,41.75
2018-05-13T12:30:40.201Z,43.21
2018-05-13T12:31:40.123Z,42.35
2018-05-13T12:32:40.061Z,41.77
2018-05-13T12:33:39.995Z,40.80
2018-05-13T12:34:39.945Z,40.89
2018-05-13T12:35:39.858Z,39.84
2018-05-13T12:36:39.796Z,40.23
2018-05-13T12:37:39.726Z,40.21
2018-05-13T12:38:39.660Z,40.13
2018-05-13T12:39:39.593Z,39.26
2018-05-13T12:40:39.529Z,38.96
2018-05-13T12:41:39.465Z,39.57
2018-05-13T12:42:39.396Z,39.18
2018-05-13T12:43:39.333Z,39.88
2018-05-13T12:44:39.265Z,37.15
2018-05-13T12:45:39.215Z,38.63
2018-05-13T12:46:39.133Z,36.39
2018-05-13T12:47:39.072Z,36.58
2018-05-13T12:48:39.002Z,38.06
2018-05-13T12:49:38.940Z,37.30
2018-05-13T12:50:38.872Z,37.52
2018-05-13T12:51:38.809Z,36.46
2018-05-13T12:52:38.743Z,35.77
2018-05-13T12:53:38.684Z,35.28
2018-05-13T12:54:38.621Z,35.03
2018-05-13T12:55:38.575Z,34.75
2018-05-13T12:56:38.487Z,34.28
2018-05-13T12:57:38.423Z,32.63
2018-05-13T12:58:38.361Z,31.27
2018-05-13T12:59:38.295Z,30.58
2018-05-13T13:00:38.231Z,31.37
2018-05-13T13:01:38.170Z,31.48
2018-05-13T13:02:38.106Z,31.20
2018-05-13T13:03:38.043Z,30.81
2018-05-13T13:04:37.983Z,28.95
2018-05-13T13:05:37.921Z,28.36
2018-05-13T13:06:37.874Z,31.20
2018-05-13T13:07:37.842Z,31.29
2018-05-13T13:08:37.733Z,30.60
2018-05-13T13:09:37.674Z,31.48
2018-05-13T13:10:37.610Z,29.43
2018-05-13T13:11:37.545Z,29.90
2018-05-13T13:12:37.488Z,29.91
2018-05-13T13:13:37.432Z,30.91
2018-05-13T13:14:37.363Z,30.04
2018-05-13T13:15:37.300Z,31.02
2018-05-13T13:16:37.245Z,31.19
2018-05-13T13:17:37.174Z,31.67
2018-05-13T13:18:37.113Z,31.58
2018-05-13T13:19:37.048Z,32.07
2018-05-13T13:20:36.984Z,31.79
2018-05-13T13:21:36.925Z,32.09
2018-05-13T13:22:36.875Z,31.58
2018-05-13T13:23:36.818Z,31.96
2018-05-13T13:24:36.737Z,32.12
2018-05-13T13:25:36.675Z,33.09
2018-05-13T13:26:36.609Z,33.46
2018-05-13T13:27:36.549Z,34.34
2018-05-13T13:28:36.486Z,33.95
2018-05-13T13:29:36.422Z,34.26
2018-05-13T13:30:36.433Z,34.65
2018-05-13T13:31:36.318Z,34.75
2018-05-13T13:32:36.232Z,34.74
2018-05-13T13:33:36.173Z,34.62
2018-05-13T13:34:36.109Z,35.42
2018-05-13T13:35:36.050Z,35.01
2018-05-13T13:36:36.038Z,35.52
2018-05-13T13:37:35.916Z,35.13
2018-05-13T13:38:35.859Z,35.61
2018-05-13T13:39:35.798Z,34.72
2018-05-13T13:40:35.724Z,34.80
2018-05-13T13:41:35.664Z,35.27
2018-05-13T13:42:35.598Z,36.44
2018-05-13T13:43:35.534Z,37.21
2018-05-13T13:44:35.472Z,36.72
2018-05-13T13:45:35.407Z,37.12
2018-05-13T13:46:35.344Z,37.52
2018-05-13T13:47:35.280Z,37.11
2018-05-13T13:48:35.215Z,37.11
2018-05-13T13:49:35.154Z,37.48
2018-05-13T13:50:35.086Z,37.37
2018-05-13T13:51:35.048Z,37.75
2018-05-13T13:52:34.974Z,38.51
2018-05-13T13:53:34.953Z,38.89
2018-05-13T13:54:34.831Z,39.28
2018-05-13T13:55:34.782Z,39.86
2018-05-13T13:56:34.699Z,40.35
2018-05-13T13:57:34.635Z,41.40
2018-05-13T13:58:34.569Z,42.55
2018-05-13T13:59:34.583Z,43.13
2018-05-13T14:00:34.442Z,43.60
2018-05-13T14:01:34.387Z,44.28
2018-05-13T14:02:34.311Z,45.14
2018-05-13T14:03:34.246Z,45.98
2018-05-13T14:04:34.190Z,46.47
2018-05-13T14:05:34.117Z,46.94
2018-05-13T14:06:34.051Z,47.52
2018-05-13T14:07:33.985Z,47.71
2018-05-13T14:08:33.922Z,47.91
2018-05-13T14:09:33.854Z,48.75
2018-05-13T14:10:33.788Z,49.44
2018-05-13T14:11:33.734Z,50.60
2018-05-13T14:12:33.657Z,50.68
2018-05-13T14:13:33.589Z,50.16
2018-05-13T14:14:33.524Z,51.53
2018-05-13T14:15:33.457Z,51.01
2018-05-13T14:16:33.394Z,51.59
2018-05-13T14:17:33.324Z,51.89
2018-05-13T14:18:33.257Z,53.53
2018-05-13T14:19:33.193Z,53.05
2018-05-13T14:20:33.161Z,53.41
2018-05-13T14:21:33.069Z,53.61
2018-05-13T14:22:32.992Z,54.09
2018-05-13T14:23:32.926Z,54.48
2018-05-13T14:24:32.878Z,54.26
2018-05-13T14:25:32.804Z,55.13
2018-05-13T14:26:32.723Z,54.84
2018-05-13T14:27:32.662Z,55.13
2018-05-13T14:28:32.591Z,54.81
2018-05-13T14:29:32.523Z,55.10
2018-05-13T14:30:32.460Z,55.10
2018-05-13T14:31:32.388Z,55.58
2018-05-13T14:32:32.337Z,55.78
2018-05-13T14:33:32.255Z,55.68
2018-05-13T14:34:32.192Z,55.46
2018-05-13T14:35:32.118Z,55.68
2018-05-13T14:36:32.063Z,55.94
2018-05-13T14:37:31.986Z,55.56
2018-05-13T14:38:31.915Z,56.07
2018-05-13T14:39:31.848Z,56.85
2018-05-13T14:40:31.792Z,56.46
2018-05-13T14:41:31.711Z,56.26
2018-05-13T14:42:31.647Z,56.16
2018-05-13T14:43:31.590Z,56.46
2018-05-13T14:44:31.509Z,56.65
2018-05-13T14:45:31.530Z,56.46
2018-05-13T14:46:31.406Z,56.36
2018-05-13T14:47:31.321Z,57.04
2018-05-13T14:48:31.238Z,57.04
2018-05-13T14:49:31.171Z,57.91
2018-05-13T14:50:31.102Z,58.37
2018-05-13T14:51:31.043Z,58.39
2018-05-13T14:52:30.966Z,55.85
2018-05-13T14:53:30.901Z,55.85
2018-05-13T14:54:30.837Z,56.82
2018-05-13T14:55:30.774Z,55.98
2018-05-13T14:56:30.699Z,53.45
2018-05-13T14:57:30.626Z,53.26
2018-05-13T14:58:30.579Z,52.78
2018-05-13T14:59:30.494Z,52.68
2018-05-13T15:00:30.423Z,53.36
2018-05-13T15:01:30.366Z,53.26
2018-05-13T15:02:30.295Z,51.13
2018-05-13T15:03:30.219Z,51.23
2018-05-13T15:04:30.169Z,51.23
2018-05-13T15:05:30.266Z,51.23
2018-05-13T15:06:30.063Z,51.52
2018-05-13T15:07:29.947Z,51.13
2018-05-13T15:08:29.881Z,51.04
2018-05-13T15:09:29.811Z,50.94
2018-05-13T15:10:29.776Z,49.97
2018-05-13T15:11:29.684Z,49.87
2018-05-13T15:12:29.610Z,50.45
2018-05-13T15:13:29.554Z,50.55
2018-05-13T15:14:29.471Z,50.82
2018-05-13T15:15:29.426Z,50.52
2018-05-13T15:16:29.340Z,50.82
2018-05-13T15:17:29.265Z,52.17
2018-05-13T15:18:29.196Z,51.78
2018-05-13T15:19:29.135Z,51.86
2018-05-13T15:20:29.060Z,52.24
2018-05-13T15:21:28.991Z,52.53
2018-05-13T15:22:29.002Z,52.63
2018-05-13T15:23:28.866Z,53.50
2018-05-13T15:24:28.805Z,53.79
2018-05-13T15:25:28.720Z,54.17
2018-05-13T15:26:28.656Z,54.27
2018-05-13T15:27:28.581Z,54.53
2018-05-13T15:28:28.518Z,54.83
2018-05-13T15:29:28.460Z,55.89
2018-05-13T15:30:28.376Z,55.41
2018-05-13T15:31:28.309Z,55.99
2018-05-13T15:32:28.239Z,55.89
2018-05-13T15:33:28.188Z,55.51
2018-05-13T15:34:28.102Z,55.51
2018-05-13T15:35:28.053Z,55.60
2018-05-13T15:36:27.973Z,55.70
2018-05-13T15:37:27.916Z,55.79
2018-05-13T15:38:27.827Z,55.99
2018-05-13T15:39:27.848Z,56.25
2018-05-13T15:40:27.703Z,55.87
2018-05-13T15:41:27.618Z,56.35
2018-05-13T15:42:27.568Z,56.25
2018-05-13T15:43:27.529Z,57.31
2018-05-13T15:44:27.488Z,57.21
2018-05-13T15:45:27.375Z,57.12
2018-05-13T15:46:27.294Z,57.60
2018-05-13T15:47:27.205Z,57.60
2018-05-13T15:48:27.137Z,57.70
2018-05-13T15:49:27.067Z,58.18
2018-05-13T15:50:26.997Z,58.28
2018-05-13T15:51:26.928Z,58.76
2018-05-13T15:52:26.876Z,58.86
2018-05-13T15:53:26.789Z,59.05
2018-05-13T15:54:26.719Z,58.95
2018-05-13T15:55:26.653Z,58.67
2018-05-13T15:56:26.591Z,58.18
2018-05-13T15:57:26.521Z,58.76
2018-05-13T15:58:26.442Z,59.25
2018-05-13T15:59:26.374Z,59.05
2018-05-13T16:00:26.311Z,59.25
2018-05-13T16:01:26.235Z,58.86
2018-05-13T16:02:26.169Z,58.76
2018-05-13T16:03:26.104Z,58.95
2018-05-13T16:04:26.033Z,59.05
2018-05-13T16:05:25.965Z,59.02
2018-05-13T16:06:25.901Z,58.95
2018-05-13T16:07:25.827Z,59.15
2018-05-13T16:08:25.752Z,58.95
2018-05-13T16:09:25.696Z,59.05
2018-05-13T16:10:25.611Z,58.76
2018-05-13T16:11:25.544Z,58.76
2018-05-13T16:12:25.476Z,58.02
2018-05-13T16:13:25.405Z,56.52
2018-05-13T16:14:25.336Z,54.67
2018-05-13T16:15:25.268Z,52.66
2018-05-13T16:16:25.207Z,51.28
2018-05-13T16:17:25.128Z,49.17
2018-05-13T16:18:25.059Z,48.30
2018-05-13T16:19:24.990Z,47.37
2018-05-13T16:20:24.924Z,46.81
2018-05-13T16:21:24.855Z,45.37
2018-05-13T16:22:24.799Z,44.32
2018-05-13T16:23:24.721Z,43.27
2018-05-13T16:24:24.658Z,43.00
2018-05-13T16:25:24.590Z,42.63
2018-05-13T16:26:24.523Z,41.77
2018-05-13T16:27:24.456Z,41.89
2018-05-13T16:28:24.390Z,41.23
2018-05-13T16:29:24.336Z,39.96
2018-05-13T16:30:24.386Z,39.69
2018-05-13T16:31:24.196Z,38.92
2018-05-13T16:32:24.130Z,38.75
2018-05-13T16:33:24.072Z,39.23
2018-05-13T16:34:24.000Z,38.57
2018-05-13T16:35:24.017Z,37.19
2018-05-13T16:36:23.874Z,37.49
2018-05-13T16:37:23.817Z,37.21
2018-05-13T16:38:23.799Z,36.53
2018-05-13T16:39:23.683Z,35.94
2018-05-13T16:40:23.621Z,36.04
2018-05-13T16:41:23.557Z,35.37
2018-05-13T16:42:23.495Z,35.27
2018-05-13T16:43:23.444Z,34.88
2018-05-13T16:44:23.369Z,34.67
2018-05-13T16:45:23.306Z,34.78
2018-05-13T16:46:23.285Z,34.10
2018-05-13T16:47:23.186Z,34.78
2018-05-13T16:48:23.125Z,34.59
2018-05-13T16:49:23.068Z,34.20
2018-05-13T16:50:22.998Z,34.49
2018-05-13T16:51:22.936Z,34.47
2018-05-13T16:52:22.877Z,34.67
2018-05-13T16:53:22.813Z,34.55
2018-05-13T16:54:22.751Z,35.04
2018-05-13T16:55:22.699Z,35.04
2018-05-13T16:56:22.629Z,35.53
2018-05-13T16:57:22.564Z,35.53
2018-05-13T16:58:22.503Z,35.45
2018-05-13T16:59:22.519Z,35.53
2018-05-13T17:00:22.381Z,35.42
2018-05-13T17:01:22.320Z,35.52
2018-05-13T17:02:22.283Z,35.40
2018-05-13T17:03:22.198Z,35.77
2018-05-13T17:04:22.143Z,36.46
2018-05-13T17:05:22.079Z,36.52
2018-05-13T17:06:22.014Z,37.50
2018-05-13T17:07:21.952Z,37.67
2018-05-13T17:08:21.896Z,38.24
2018-05-13T17:09:21.874Z,38.90
2018-05-13T17:10:21.766Z,39.67
2018-05-13T17:11:21.707Z,39.86
2018-05-13T17:12:21.645Z,40.13
2018-05-13T17:13:21.590Z,40.80
2018-05-13T17:14:21.520Z,41.85
2018-05-13T17:15:21.460Z,42.90
2018-05-13T17:16:21.405Z,43.58
2018-05-13T17:17:21.346Z,43.75
2018-05-13T17:18:21.277Z,44.62
2018-05-13T17:19:21.209Z,45.09
2018-05-13T17:20:21.144Z,45.84
2018-05-13T17:21:21.082Z,46.04
2018-05-13T17:22:21.035Z,46.52
2018-05-13T17:23:20.955Z,46.79
2018-05-13T17:24:20.893Z,46.98
2018-05-13T17:25:20.825Z,46.89
2018-05-13T17:26:20.763Z,47.64
2018-05-13T17:27:20.700Z,47.93
2018-05-13T17:28:20.706Z,48.39
2018-05-13T17:29:20.570Z,49.27
2018-05-13T17:30:20.504Z,49.17
2018-05-13T17:31:20.439Z,49.85
2018-05-13T17:32:20.378Z,50.53
2018-05-13T17:33:20.308Z,50.50
2018-05-13T17:34:20.248Z,50.41
2018-05-13T17:35:20.178Z,50.60
2018-05-13T17:36:20.135Z,50.79
2018-05-13T17:37:20.075Z,51.28
2018-05-13T17:38:19.982Z,51.57
2018-05-13T17:39:19.961Z,51.45
2018-05-13T17:40:19.852Z,52.22
2018-05-13T17:41:19.850Z,51.93
2018-05-13T17:42:19.719Z,52.61
2018-05-13T17:43:19.651Z,52.58
2018-05-13T17:44:19.581Z,53.17
2018-05-13T17:45:19.515Z,53.07
2018-05-13T17:46:19.449Z,53.17
2018-05-13T17:47:19.379Z,53.26
2018-05-13T17:48:19.325Z,54.52
2018-05-13T17:49:19.250Z,54.13
2018-05-13T17:50:19.181Z,54.79
2018-05-13T17:51:19.114Z,54.30
2018-05-13T17:52:19.048Z,54.88
2018-05-13T17:53:18.980Z,55.17
2018-05-13T17:54:18.921Z,55.36
2018-05-13T17:55:18.844Z,54.98
2018-05-13T17:56:18.783Z,55.43
2018-05-13T17:57:18.738Z,55.53
2018-05-13T17:58:18.642Z,55.63
2018-05-13T17:59:18.575Z,55.24
2018-05-13T18:00:18.566Z,55.82
2018-05-13T18:01:18.442Z,55.73
2018-05-13T18:02:18.451Z,56.50
2018-05-13T18:03:18.489Z,55.92
2018-05-13T18:04:18.235Z,56.30
2018-05-13T18:05:18.168Z,56.47
2018-05-13T18:06:18.105Z,56.86
2018-05-13T18:07:18.031Z,57.44
2018-05-13T18:08:17.961Z,57.24
2018-05-13T18:09:17.895Z,57.44
2018-05-13T18:10:17.828Z,57.54
2018-05-13T18:11:17.762Z,58.02
2018-05-13T18:12:17.804Z,58.37
2018-05-13T18:13:17.621Z,58.95
2018-05-13T18:14:17.558Z,58.28
2018-05-13T18:15:17.488Z,58.86
2018-05-13T18:16:17.417Z,59.05
2018-05-13T18:17:17.346Z,59.25
2018-05-13T18:18:17.278Z,58.86
2018-05-13T18:19:17.216Z,58.93
2018-05-13T18:20:17.141Z,59.41
2018-05-13T18:21:17.074Z,59.02
2018-05-13T18:22:17.003Z,59.41
2018-05-13T18:23:16.934Z,59.89
2018-05-13T18:24:16.867Z,59.31
2018-05-13T18:25:16.796Z,60.09
2018-05-13T18:26:16.729Z,60.28
2018-05-13T18:27:16.658Z,60.38
2018-05-13T18:28:16.587Z,60.18
2018-05-13T18:29:16.518Z,60.67
2018-05-13T18:30:16.448Z,60.76
2018-05-13T18:31:16.389Z,61.15
2018-05-13T18:32:16.324Z,60.76
2018-05-13T18:33:16.242Z,61.41
2018-05-13T18:34:16.171Z,61.41
2018-05-13T18:35:16.102Z,61.31
2018-05-13T18:36:16.082Z,61.22
2018-05-13T18:37:15.964Z,61.22
2018-05-13T18:38:15.896Z,61.12
2018-05-13T18:39:15.953Z,61.41
2018-05-13T18:40:15.754Z,61.70
2018-05-13T18:41:15.686Z,61.60
2018-05-13T18:42:15.660Z,61.60
2018-05-13T18:43:15.546Z,61.51
2018-05-13T18:44:15.477Z,61.99
2018-05-13T18:45:15.407Z,61.80
2018-05-13T18:46:15.344Z,61.99
2018-05-13T18:47:15.267Z,62.34
2018-05-13T18:48:15.204Z,62.05
2018-05-13T18:49:15.130Z,62.44
2018-05-13T18:50:15.072Z,62.82
2018-05-13T18:51:14.992Z,62.73
2018-05-13T18:52:14.917Z,62.63
2018-05-13T18:53:14.853Z,62.63
2018-05-13T18:54:14.782Z,63.02
2018-05-13T18:55:14.707Z,62.92
2018-05-13T18:56:14.649Z,62.54
2018-05-13T18:57:14.568Z,63.12
2018-05-13T18:58:14.503Z,62.54
2018-05-13T18:59:14.451Z,62.82
2018-05-13T19:00:14.359Z,63.60
2018-05-13T19:01:14.288Z,63.31
2018-05-13T19:02:14.225Z,64.28
2018-05-13T19:03:14.149Z,64.37
2018-05-13T19:04:14.077Z,63.98
2018-05-13T19:05:14.007Z,64.15
2018-05-13T19:06:13.937Z,64.34
2018-05-13T19:07:13.869Z,64.05
2018-05-13T19:08:13.796Z,64.24
2018-05-13T19:09:13.731Z,64.53
2018-05-13T19:10:13.656Z,64.15
2018-05-13T19:11:13.586Z,64.53
2018-05-13T19:12:13.571Z,65.20
2018-05-13T19:13:13.444Z,65.20
2018-05-13T19:14:13.381Z,65.20
2018-05-13T19:15:13.307Z,65.59
2018-05-13T19:16:13.235Z,65.50
2018-05-13T19:17:13.165Z,65.59
2018-05-13T19:18:13.092Z,65.59
2018-05-13T19:19:13.026Z,65.69
2018-05-13T19:20:12.970Z,65.75
2018-05-13T19:21:12.883Z,66.14
2018-05-13T19:22:12.810Z,66.04
2018-05-13T19:23:12.742Z,66.43
2018-05-13T19:24:12.671Z,66.43
2018-05-13T19:25:12.602Z,66.14
2018-05-13T19:26:12.527Z,65.56
2018-05-13T19:27:12.457Z,65.85
2018-05-13T19:28:12.388Z,66.14
2018-05-13T19:29:12.319Z,65.75
2018-05-13T19:30:12.249Z,66.33
2018-05-13T19:31:12.182Z,66.52
2018-05-13T19:32:12.110Z,66.14
2018-05-13T19:33:12.034Z,65.95
2018-05-13T19:34:11.962Z,65.47
2018-05-13T19:35:11.894Z,66.43
2018-05-13T19:36:11.835Z,66.43
2018-05-13T19:37:11.762Z,66.14
2018-05-13T19:38:11.681Z,66.43
2018-05-13T19:39:11.611Z,66.43
2018-05-13T19:40:11.540Z,66.33
2018-05-13T19:41:11.468Z,66.14
2018-05-13T19:42:11.397Z,66.72
2018-05-13T19:43:11.334Z,66.72
2018-05-13T19:44:11.255Z,66.82
2018-05-13T19:45:11.185Z,67.10
2018-05-13T19:46:11.114Z,67.16
2018-05-13T19:47:11.049Z,66.88
2018-05-13T19:48:10.973Z,66.78
2018-05-13T19:49:10.913Z,66.97
2018-05-13T19:50:10.835Z,66.97
2018-05-13T19:51:10.760Z,67.26
2018-05-13T19:52:10.690Z,66.97
2018-05-13T19:53:10.619Z,66.97
2018-05-13T19:54:10.620Z,66.78
2018-05-13T19:55:10.476Z,67.07
2018-05-13T19:56:10.412Z,67.07
2018-05-13T19:57:10.336Z,67.26
2018-05-13T19:58:10.266Z,67.07
2018-05-13T19:59:10.192Z,66.88
2018-05-13T20:00:10.122Z,67.26
2018-05-13T20:01:10.051Z,67.94
2018-05-13T20:02:09.990Z,67.46
2018-05-13T20:03:10.006Z,67.46
2018-05-13T20:04:09.839Z,67.36
2018-05-13T20:05:09.766Z,67.55
2018-05-13T20:06:09.716Z,67.36
2018-05-13T20:07:09.624Z,67.74
2018-05-13T20:08:09.561Z,67.55
2018-05-13T20:09:09.505Z,67.94
2018-05-13T20:10:09.410Z,67.46
2018-05-13T20:11:09.342Z,67.46
2018-05-13T20:12:09.270Z,68.04
2018-05-13T20:13:09.202Z,67.46
2018-05-13T20:14:09.137Z,67.74
2018-05-13T20:15:09.065Z,68.23
2018-05-13T20:16:08.985Z,67.36
2018-05-13T20:17:08.916Z,67.65
2018-05-13T20:18:08.845Z,67.74
2018-05-13T20:19:08.773Z,67.65
2018-05-13T20:20:08.701Z,67.65
2018-05-13T20:21:08.632Z,68.32
2018-05-13T20:22:08.582Z,67.46
2018-05-13T20:23:08.495Z,67.65
2018-05-13T20:24:08.418Z,68.13
2018-05-13T20:25:08.347Z,68.04
2018-05-13T20:26:08.274Z,68.04
2018-05-13T20:27:08.204Z,68.13
2018-05-13T20:28:08.141Z,68.52
2018-05-13T20:29:08.065Z,68.52
2018-05-13T20:30:07.993Z,68.23
2018-05-13T20:31:07.920Z,68.04
2018-05-13T20:32:07.850Z,68.04
2018-05-13T20:33:07.777Z,67.84
2018-05-13T20:34:07.713Z,68.52
2018-05-13T20:35:07.636Z,68.04
2018-05-13T20:36:07.564Z,67.74
2018-05-13T20:37:07.493Z,67.84
2018-05-13T20:38:07.420Z,68.32
2018-05-13T20:39:07.355Z,68.23
2018-05-13T20:40:07.291Z,68.42
2018-05-13T20:41:07.207Z,68.90
2018-05-13T20:42:07.141Z,68.04
2018-05-13T20:43:07.084Z,67.94
2018-05-13T20:44:06.993Z,68.04
2018-05-13T20:45:06.922Z,68.00
2018-05-13T20:46:06.851Z,67.81
2018-05-13T20:47:06.790Z,68.04
2018-05-13T20:48:06.707Z,67.13
2018-05-13T20:49:06.640Z,67.65
2018-05-13T20:50:06.564Z,67.46
2018-05-13T20:51:06.493Z,67.55
2018-05-13T20:52:06.427Z,67.74
2018-05-13T20:53:06.357Z,67.42
2018-05-13T20:54:06.288Z,67.13
2018-05-13T20:55:06.208Z,67.23
2018-05-13T20:56:06.138Z,67.13
2018-05-13T20:57:06.066Z,66.75
2018-05-13T20:58:05.997Z,66.78
2018-05-13T20:59:05.927Z,67.03
2018-05-13T21:00:05.855Z,66.88
2018-05-13T21:01:05.780Z,66.07
2018-05-13T21:02:05.708Z,66.17
2018-05-13T21:03:05.641Z,66.85
2018-05-13T21:04:05.576Z,66.17
2018-05-13T21:05:05.496Z,66.75
2018-05-13T21:06:05.427Z,66.75
2018-05-13T21:07:05.357Z,66.27
2018-05-13T21:08:05.286Z,66.85
2018-05-13T21:09:05.213Z,66.07
2018-05-13T21:10:05.139Z,66.07
2018-05-13T21:11:05.070Z,66.39
2018-05-13T21:12:04.996Z,66.27
2018-05-13T21:13:04.933Z,65.78
2018-05-13T21:14:04.852Z,66.27
2018-05-13T21:15:04.784Z,66.27
2018-05-13T21:16:04.795Z,66.27
2018-05-13T21:17:04.641Z,66.27
2018-05-13T21:18:04.568Z,65.50
2018-05-13T21:19:04.499Z,65.40
2018-05-13T21:20:04.429Z,65.33
2018-05-13T21:21:04.356Z,65.72
2018-05-13T21:22:04.285Z,65.33
2018-05-13T21:23:04.216Z,65.24
2018-05-13T21:24:04.144Z,65.40
2018-05-13T21:25:04.072Z,65.53
2018-05-13T21:26:04.009Z,65.63
2018-05-13T21:27:03.927Z,65.24
2018-05-13T21:28:03.854Z,64.76
2018-05-13T21:29:03.784Z,65.05
2018-05-13T21:30:03.789Z,64.86
2018-05-13T21:31:03.640Z,64.76
2018-05-13T21:32:03.571Z,65.14
2018-05-13T21:33:03.511Z,65.40
2018-05-13T21:34:03.428Z,66.07
2018-05-13T21:35:03.361Z,67.03
2018-05-13T21:36:03.284Z,68.77
2018-05-13T21:37:03.224Z,70.09
2018-05-13T21:38:03.142Z,69.99
2018-05-13T21:39:03.081Z,70.86
2018-05-13T21:40:03.000Z,71.24
2018-05-13T21:41:02.929Z,70.95
2018-05-13T21:42:02.855Z,71.14
2018-05-13T21:43:02.791Z,71.04
2018-05-13T21:44:02.713Z,71.53
2018-05-13T21:45:02.652Z,71.34
2018-05-13T21:46:02.569Z,71.53
2018-05-13T21:47:02.534Z,71.34
2018-05-13T21:48:02.427Z,71.91
2018-05-13T21:49:02.358Z,71.43
2018-05-13T21:50:02.285Z,71.91
2018-05-13T21:51:02.226Z,72.11
2018-05-13T21:52:02.140Z,71.91
2018-05-13T21:53:02.069Z,72.01
2018-05-13T21:54:02.000Z,71.91